Brook Park, Minnesota
Current Conditions -  °F | °C
As of 6:03 PM on Monday 20 Oct 2014 (Local Time) from K04W Reporting Station
Clear Clear  
Wind Chill: 50°   Ceiling: Unl
Heat Index: 50°   Visibility: 10mi
Dew Point: 39°   Wind: 7mph
Humidity: 66%   Direction: 20°NNE
Pressure: 30.05"   Gusts: NA
Location:  45.95°N, 93.08°W
Report Text: K04W 202303Z AUTO 02006KT 10SM CLR 10/04 A3005 RMK AO2
Loading
Personal Weather Stations






























Interactive Weather Map
Tropical Storm Tracking
New forecast layout! Learn more

10-Day Weather Forecast

Advertisements
Track Severe Weather on mobile